createdAt,value
2018-12-11T00:00:20.872Z,4.90
2018-12-11T00:02:56.735Z,4.90
2018-12-11T00:05:29.912Z,4.90
2018-12-11T00:08:05.082Z,4.90
2018-12-11T00:10:38.799Z,4.90
2018-12-11T00:13:13.144Z,4.90
2018-12-11T00:15:46.807Z,5.00
2018-12-11T00:18:20.995Z,4.90
2018-12-11T00:20:53.570Z,4.90
2018-12-11T00:23:28.979Z,4.90
2018-12-11T00:26:01.605Z,4.90
2018-12-11T00:28:35.069Z,4.90
2018-12-11T00:31:08.187Z,4.90
2018-12-11T00:33:42.740Z,4.90
2018-12-11T00:36:15.459Z,4.80
2018-12-11T00:38:50.079Z,4.80
2018-12-11T00:41:22.706Z,4.90
2018-12-11T00:43:57.440Z,4.90
2018-12-11T00:46:30.290Z,4.90
2018-12-11T00:49:03.496Z,5.00
2018-12-11T00:51:36.999Z,5.00
2018-12-11T00:54:09.897Z,5.00
2018-12-11T00:56:43.404Z,5.00
2018-12-11T00:59:16.614Z,5.00
2018-12-11T01:01:49.907Z,5.00
2018-12-11T01:04:22.812Z,5.00
2018-12-11T01:06:57.200Z,5.00
2018-12-11T01:09:30.374Z,5.00
2018-12-11T01:12:03.777Z,4.90
2018-12-11T01:14:36.508Z,5.00
2018-12-11T01:17:09.982Z,5.00
2018-12-11T01:19:43.147Z,5.00
2018-12-11T01:22:15.866Z,4.90
2018-12-11T01:24:49.170Z,4.90
2018-12-11T01:27:22.294Z,4.90
2018-12-11T01:29:55.433Z,4.90
2018-12-11T01:32:28.168Z,4.90
2018-12-11T01:35:02.322Z,4.90
2018-12-11T01:37:36.878Z,4.90
2018-12-11T01:40:10.299Z,4.90
2018-12-11T01:42:43.205Z,4.90
2018-12-11T01:45:16.286Z,5.00
2018-12-11T01:47:48.993Z,4.90
2018-12-11T01:50:21.979Z,5.00
2018-12-11T01:52:56.666Z,5.00
2018-12-11T01:55:30.169Z,5.00
2018-12-11T01:58:02.746Z,5.00
2018-12-11T02:00:36.044Z,5.00
2018-12-11T02:03:09.312Z,5.00
2018-12-11T02:05:43.935Z,5.00
2018-12-11T02:08:17.554Z,5.00
2018-12-11T02:10:51.537Z,5.00
2018-12-11T02:13:24.738Z,5.00
2018-12-11T02:15:58.994Z,5.00
2018-12-11T02:18:33.429Z,5.00
2018-12-11T02:21:06.726Z,5.00
2018-12-11T02:23:40.002Z,5.00
2018-12-11T02:26:12.701Z,5.00
2018-12-11T02:28:45.376Z,5.00
2018-12-11T02:31:18.921Z,5.00
2018-12-11T02:33:52.200Z,5.00
2018-12-11T02:36:25.383Z,5.10
2018-12-11T02:38:58.849Z,5.10
2018-12-11T02:41:31.677Z,5.10
2018-12-11T02:44:04.431Z,5.10
2018-12-11T02:46:37.924Z,5.10
2018-12-11T02:49:11.828Z,5.10
2018-12-11T02:51:44.536Z,5.10
2018-12-11T02:54:17.207Z,5.10
2018-12-11T02:56:50.001Z,5.10
2018-12-11T02:59:23.461Z,5.20
2018-12-11T03:01:56.314Z,5.20
2018-12-11T03:04:29.306Z,5.20
2018-12-11T03:07:02.620Z,5.20
2018-12-11T03:09:35.959Z,5.20
2018-12-11T03:13:12.766Z,5.20
2018-12-11T03:15:45.868Z,5.20
2018-12-11T03:18:19.006Z,5.30
2018-12-11T03:20:51.910Z,5.20
2018-12-11T03:23:25.387Z,5.20
2018-12-11T03:26:00.134Z,5.20
2018-12-11T03:28:34.508Z,5.30
2018-12-11T03:31:09.281Z,5.40
2018-12-11T03:33:42.452Z,5.40
2018-12-11T03:36:15.234Z,5.30
2018-12-11T03:38:47.927Z,5.40
2018-12-11T03:41:20.973Z,5.40
2018-12-11T03:43:54.372Z,5.40
2018-12-11T03:46:29.044Z,5.30
2018-12-11T03:49:01.625Z,5.30
2018-12-11T03:51:35.305Z,5.30
2018-12-11T03:54:08.189Z,5.30
2018-12-11T03:56:40.952Z,5.30
2018-12-11T03:59:13.755Z,5.30
2018-12-11T04:01:46.610Z,5.30
2018-12-11T04:04:20.083Z,5.30
2018-12-11T04:06:52.612Z,5.30
2018-12-11T04:09:26.023Z,5.20
2018-12-11T04:11:59.146Z,5.20
2018-12-11T04:14:33.238Z,5.20
2018-12-11T04:17:06.592Z,5.20
2018-12-11T04:19:39.382Z,5.20
2018-12-11T04:22:12.453Z,5.20
2018-12-11T04:24:45.104Z,5.20
2018-12-11T04:27:18.546Z,5.10
2018-12-11T04:29:51.160Z,5.20
2018-12-11T04:32:23.737Z,5.10
2018-12-11T04:34:57.121Z,5.20
2018-12-11T04:37:29.556Z,5.10
2018-12-11T04:40:04.383Z,5.10
2018-12-11T04:42:36.887Z,5.10
2018-12-11T04:45:09.840Z,5.10
2018-12-11T04:47:43.291Z,5.10
2018-12-11T04:50:16.421Z,5.10
2018-12-11T04:52:48.918Z,5.10
2018-12-11T04:55:22.195Z,5.10
2018-12-11T04:57:55.423Z,5.10
2018-12-11T05:00:29.015Z,5.10
2018-12-11T05:03:02.211Z,5.10
2018-12-11T05:05:36.004Z,5.10
2018-12-11T05:08:14.949Z,5.10
2018-12-11T05:10:48.533Z,5.10
2018-12-11T05:13:21.281Z,5.10
2018-12-11T05:15:54.117Z,5.10
2018-12-11T05:18:27.247Z,5.10
2018-12-11T05:21:01.809Z,5.10
2018-12-11T05:23:34.974Z,5.00
2018-12-11T05:26:07.840Z,5.00
2018-12-11T05:28:42.202Z,5.00
2018-12-11T05:31:15.043Z,5.00
2018-12-11T05:33:48.458Z,5.00
2018-12-11T05:36:21.340Z,5.00
2018-12-11T05:38:54.511Z,4.90
2018-12-11T05:41:27.315Z,4.90
2018-12-11T05:44:00.374Z,4.90
2018-12-11T05:46:32.960Z,4.90
2018-12-11T05:49:06.113Z,4.80
2018-12-11T05:51:39.360Z,4.80
2018-12-11T05:54:13.861Z,4.70
2018-12-11T05:56:48.530Z,4.70
2018-12-11T05:59:20.977Z,4.60
2018-12-11T06:01:54.217Z,4.50
2018-12-11T06:04:27.664Z,4.50
2018-12-11T06:07:01.047Z,4.50
2018-12-11T06:09:34.045Z,4.60
2018-12-11T06:12:06.800Z,4.40
2018-12-11T06:14:41.122Z,4.30
2018-12-11T06:17:14.284Z,4.30
2018-12-11T06:19:46.785Z,4.10
2018-12-11T06:22:20.206Z,4.10
2018-12-11T06:24:53.836Z,4.20
2018-12-11T06:27:26.275Z,4.20
2018-12-11T06:30:00.152Z,4.20
2018-12-11T06:32:33.528Z,4.20
2018-12-11T06:35:06.423Z,4.30
2018-12-11T06:37:39.827Z,4.40
2018-12-11T06:40:12.850Z,4.30
2018-12-11T06:42:45.778Z,4.30
2018-12-11T06:45:19.403Z,4.40
2018-12-11T06:47:52.768Z,4.40
2018-12-11T06:50:26.808Z,4.40
2018-12-11T06:52:59.411Z,4.40
2018-12-11T06:55:32.853Z,4.50
2018-12-11T06:58:06.613Z,4.40
2018-12-11T07:00:40.722Z,4.40
2018-12-11T07:03:13.835Z,4.40
2018-12-11T07:05:59.717Z,4.50
2018-12-11T07:08:36.803Z,4.50
2018-12-11T07:11:09.467Z,4.40
2018-12-11T07:13:42.329Z,4.50
2018-12-11T07:16:15.463Z,4.50
2018-12-11T07:18:48.647Z,4.60
2018-12-11T07:21:21.139Z,4.70
2018-12-11T07:23:55.393Z,4.60
2018-12-11T07:26:28.038Z,4.50
2018-12-11T07:29:02.429Z,4.50
2018-12-11T07:31:36.112Z,4.50
2018-12-11T07:34:09.015Z,4.40
2018-12-11T07:36:42.073Z,4.30
2018-12-11T07:39:15.372Z,4.40
2018-12-11T07:41:48.682Z,4.40
2018-12-11T07:44:22.246Z,4.50
2018-12-11T07:46:55.185Z,4.60
2018-12-11T07:49:28.402Z,4.40
2018-12-11T07:52:01.690Z,4.50
2018-12-11T07:54:34.738Z,4.40
2018-12-11T07:57:07.627Z,4.20
2018-12-11T07:59:40.850Z,4.30
2018-12-11T08:02:14.112Z,4.20
2018-12-11T08:04:47.134Z,4.30
2018-12-11T08:07:20.215Z,4.20
2018-12-11T08:09:53.401Z,4.20
2018-12-11T08:12:26.661Z,4.20
2018-12-11T08:15:00.160Z,4.30
2018-12-11T08:17:34.504Z,4.40
2018-12-11T08:20:08.328Z,4.30
2018-12-11T08:22:41.602Z,4.40
2018-12-11T08:25:14.936Z,4.40
2018-12-11T08:27:48.026Z,4.40
2018-12-11T08:30:21.374Z,4.30
2018-12-11T08:32:54.075Z,4.10
2018-12-11T08:35:28.761Z,4.00
2018-12-11T08:38:01.224Z,4.00
2018-12-11T08:40:50.995Z,4.10
2018-12-11T08:43:24.324Z,4.10
2018-12-11T08:45:57.524Z,3.90
2018-12-11T08:48:30.681Z,4.10
2018-12-11T08:51:03.806Z,4.20
2018-12-11T08:53:36.706Z,4.30
2018-12-11T08:56:09.727Z,4.30
2018-12-11T08:58:43.922Z,4.40
2018-12-11T09:01:18.531Z,4.60
2018-12-11T09:03:52.017Z,4.60
2018-12-11T09:06:24.619Z,4.60
2018-12-11T09:08:57.816Z,4.80
2018-12-11T09:11:30.825Z,4.90
2018-12-11T09:14:04.039Z,5.00
2018-12-11T09:16:36.843Z,4.90
2018-12-11T09:19:09.771Z,4.70
2018-12-11T09:21:43.074Z,4.60
2018-12-11T09:24:16.319Z,4.50
2018-12-11T09:26:50.282Z,4.70
2018-12-11T09:29:24.391Z,4.80
2018-12-11T09:31:57.747Z,4.70
2018-12-11T09:34:31.112Z,4.70
2018-12-11T09:37:04.300Z,4.70
2018-12-11T09:39:37.142Z,4.50
2018-12-11T09:42:10.274Z,4.60
2018-12-11T09:44:43.765Z,4.70
2018-12-11T09:47:16.662Z,4.70
2018-12-11T09:49:50.092Z,4.60
2018-12-11T09:52:23.831Z,4.70
2018-12-11T09:54:57.865Z,4.50
2018-12-11T09:57:31.430Z,4.60
2018-12-11T10:00:06.377Z,4.60
2018-12-11T10:02:39.490Z,4.80
2018-12-11T10:05:13.593Z,4.70
2018-12-11T10:07:46.523Z,4.80
2018-12-11T10:10:19.792Z,4.90
2018-12-11T10:12:55.258Z,4.80
2018-12-11T10:15:28.097Z,4.70
2018-12-11T10:18:01.507Z,4.70
2018-12-11T10:20:34.468Z,4.70
2018-12-11T10:23:08.328Z,4.70
2018-12-11T10:25:41.862Z,4.60
2018-12-11T10:28:15.163Z,4.70
2018-12-11T10:30:48.898Z,4.70
2018-12-11T10:33:22.147Z,4.70
2018-12-11T10:35:55.325Z,4.70
2018-12-11T10:38:31.021Z,4.80
2018-12-11T10:41:04.393Z,4.90
2018-12-11T10:43:41.202Z,4.80
2018-12-11T10:46:15.112Z,4.70
2018-12-11T10:48:48.342Z,4.80
2018-12-11T10:51:21.905Z,4.80
2018-12-11T10:53:55.311Z,4.80
2018-12-11T10:56:28.416Z,4.80
2018-12-11T10:59:01.397Z,4.90
2018-12-11T11:01:37.083Z,5.00
2018-12-11T11:04:10.770Z,5.00
2018-12-11T11:06:44.262Z,4.90
2018-12-11T11:09:17.699Z,4.90
2018-12-11T11:11:51.628Z,4.90
2018-12-11T11:14:25.378Z,4.90
2018-12-11T11:16:58.501Z,4.90
2018-12-11T11:19:32.375Z,4.90
2018-12-11T11:22:08.750Z,5.00
2018-12-11T11:24:41.540Z,5.00
2018-12-11T11:27:14.579Z,5.00
2018-12-11T11:29:48.314Z,5.10
2018-12-11T11:32:22.262Z,5.00
2018-12-11T11:34:54.962Z,4.70
2018-12-11T11:37:27.548Z,4.80
2018-12-11T11:40:01.192Z,4.80
2018-12-11T11:42:34.596Z,4.70
2018-12-11T11:45:09.036Z,4.80
2018-12-11T11:47:43.223Z,4.90
2018-12-11T11:50:18.968Z,4.60
2018-12-11T11:52:52.506Z,4.80
2018-12-11T11:55:26.255Z,4.70
2018-12-11T11:57:59.127Z,4.80
2018-12-11T12:00:32.675Z,4.70
2018-12-11T12:03:06.081Z,4.80
2018-12-11T12:05:43.619Z,4.90
2018-12-11T12:08:17.075Z,4.80
2018-12-11T12:10:50.356Z,4.90
2018-12-11T12:13:24.406Z,4.90
2018-12-11T12:15:58.344Z,5.10
2018-12-11T12:18:31.444Z,5.10
2018-12-11T12:21:05.645Z,5.00
2018-12-11T12:23:40.029Z,5.00
2018-12-11T12:26:12.793Z,5.00
2018-12-11T12:28:45.643Z,5.00
2018-12-11T12:31:20.280Z,5.20
2018-12-11T12:33:53.386Z,5.10
2018-12-11T12:36:26.659Z,5.10
2018-12-11T12:38:59.578Z,5.20
2018-12-11T12:41:33.026Z,5.20
2018-12-11T12:44:05.834Z,5.20
2018-12-11T12:46:38.879Z,5.20
2018-12-11T12:49:12.763Z,5.30
2018-12-11T12:51:45.503Z,5.20
2018-12-11T12:54:18.166Z,5.20
2018-12-11T12:56:51.548Z,5.10
2018-12-11T12:59:25.342Z,5.20
2018-12-11T13:01:58.961Z,5.20
2018-12-11T13:04:33.218Z,5.50
2018-12-11T13:07:06.358Z,5.40
2018-12-11T13:09:39.631Z,5.20
2018-12-11T13:12:12.362Z,5.00
2018-12-11T13:14:45.065Z,4.80
2018-12-11T13:17:18.121Z,4.80
2018-12-11T13:19:50.767Z,4.80
2018-12-11T13:22:23.452Z,5.00
2018-12-11T13:24:57.840Z,4.90
2018-12-11T13:27:30.287Z,4.90
2018-12-11T13:30:05.281Z,5.10
2018-12-11T13:32:39.782Z,5.10
2018-12-11T13:35:12.967Z,5.10
2018-12-11T13:37:46.539Z,5.20
2018-12-11T13:40:19.372Z,5.20
2018-12-11T13:42:52.953Z,5.20
2018-12-11T13:45:26.375Z,5.30
2018-12-11T13:47:59.615Z,5.50
2018-12-11T13:50:32.797Z,5.40
2018-12-11T13:53:06.296Z,5.50
2018-12-11T13:55:39.719Z,5.30
2018-12-11T13:58:14.012Z,5.30
2018-12-11T14:00:47.279Z,5.20
2018-12-11T14:03:20.096Z,5.30
2018-12-11T14:05:54.642Z,5.30
2018-12-11T14:08:28.340Z,5.30
2018-12-11T14:11:01.853Z,5.20
2018-12-11T14:13:37.265Z,5.20
2018-12-11T14:16:11.220Z,5.30
2018-12-11T14:18:45.257Z,5.40
2018-12-11T14:21:20.621Z,5.20
2018-12-11T14:23:53.910Z,5.20
2018-12-11T14:26:26.757Z,5.20
2018-12-11T14:28:59.946Z,5.30
2018-12-11T14:31:32.677Z,5.20
2018-12-11T14:34:05.385Z,5.20
2018-12-11T14:36:38.414Z,5.40
2018-12-11T14:39:12.105Z,5.30
2018-12-11T14:41:45.580Z,5.30
2018-12-11T14:44:19.959Z,5.30
2018-12-11T14:46:53.752Z,5.30
2018-12-11T14:49:27.476Z,5.50
2018-12-11T14:52:00.187Z,5.30
2018-12-11T14:54:36.986Z,5.40
2018-12-11T14:57:10.222Z,5.50
2018-12-11T14:59:44.040Z,5.30
2018-12-11T15:02:16.938Z,5.10
2018-12-11T15:04:49.773Z,5.30
2018-12-11T15:07:24.465Z,5.50
2018-12-11T15:09:57.853Z,5.30
2018-12-11T15:12:31.896Z,5.30
2018-12-11T15:15:07.740Z,5.30
2018-12-11T15:17:40.904Z,5.20
2018-12-11T15:20:14.259Z,5.20
2018-12-11T15:22:49.096Z,5.30
2018-12-11T15:25:21.885Z,5.20
2018-12-11T15:27:55.343Z,5.20
2018-12-11T15:30:28.699Z,5.40
2018-12-11T15:33:02.344Z,5.50
2018-12-11T15:35:35.096Z,5.30
2018-12-11T15:38:08.496Z,5.10
2018-12-11T15:40:41.501Z,5.30
2018-12-11T15:43:14.409Z,5.20
2018-12-11T15:45:47.309Z,5.30
2018-12-11T15:48:21.691Z,5.30
2018-12-11T15:50:54.384Z,5.20
2018-12-11T15:53:29.036Z,5.10
2018-12-11T15:56:03.197Z,5.10
2018-12-11T15:58:36.409Z,5.10
2018-12-11T16:01:09.677Z,5.20
2018-12-11T16:03:42.832Z,5.20
2018-12-11T16:06:15.419Z,5.20
2018-12-11T16:08:50.262Z,5.20
2018-12-11T16:11:23.363Z,5.00
2018-12-11T16:13:56.661Z,5.20
2018-12-11T16:16:30.204Z,5.10
2018-12-11T16:19:02.967Z,5.10
2018-12-11T16:21:36.031Z,5.10
2018-12-11T16:24:08.958Z,5.00
2018-12-11T16:26:42.379Z,5.10
2018-12-11T16:29:15.766Z,4.90
2018-12-11T16:31:48.453Z,4.90
2018-12-11T16:34:21.424Z,4.90
2018-12-11T16:36:55.954Z,5.00
2018-12-11T16:39:29.632Z,5.00
2018-12-11T16:42:03.226Z,5.00
2018-12-11T16:44:35.847Z,5.00
2018-12-11T16:47:09.726Z,4.90
2018-12-11T16:49:44.625Z,4.90
2018-12-11T16:52:18.173Z,5.00
2018-12-11T16:54:52.662Z,5.10
2018-12-11T16:57:26.051Z,5.20
2018-12-11T16:59:58.977Z,5.10
2018-12-11T17:02:34.700Z,4.90
2018-12-11T17:05:07.597Z,5.10
2018-12-11T17:07:42.301Z,5.00
2018-12-11T17:10:15.718Z,5.20
2018-12-11T17:12:49.435Z,5.00
2018-12-11T17:15:24.776Z,5.00
2018-12-11T17:17:57.499Z,5.00
2018-12-11T17:20:32.873Z,5.00
2018-12-11T17:23:06.398Z,5.00
2018-12-11T17:25:41.212Z,5.10
2018-12-11T17:30:47.936Z,5.20
2018-12-11T17:33:21.467Z,5.20
2018-12-11T17:35:54.313Z,5.30
2018-12-11T17:38:27.580Z,5.20
2018-12-11T17:41:01.511Z,4.90
2018-12-11T17:44:05.145Z,4.90
2018-12-11T17:46:38.095Z,5.00
2018-12-11T17:49:12.512Z,5.10
2018-12-11T17:51:45.703Z,5.00
2018-12-11T17:54:18.339Z,4.90
2018-12-11T17:56:51.798Z,5.00
2018-12-11T17:59:25.880Z,5.10
2018-12-11T18:02:05.147Z,5.10
2018-12-11T18:04:37.681Z,5.20
2018-12-11T18:07:10.564Z,5.20
2018-12-11T18:09:45.702Z,5.20
2018-12-11T18:12:21.070Z,5.10
2018-12-11T18:14:54.116Z,4.90
2018-12-11T18:17:26.880Z,4.90
2018-12-11T18:20:00.115Z,5.10
2018-12-11T18:22:35.399Z,5.10
2018-12-11T18:25:10.130Z,5.10
2018-12-11T18:27:43.777Z,5.20
2018-12-11T18:30:16.711Z,5.30
2018-12-11T18:32:51.580Z,5.30
2018-12-11T18:35:25.408Z,5.10
2018-12-11T18:37:58.651Z,5.10
2018-12-11T18:40:32.540Z,5.10
2018-12-11T18:43:05.665Z,5.10
2018-12-11T18:45:39.716Z,5.10
2018-12-11T18:48:12.419Z,5.00
2018-12-11T18:50:45.909Z,5.00
2018-12-11T18:53:18.412Z,5.20
2018-12-11T18:55:52.095Z,5.30
2018-12-11T18:58:25.181Z,5.30
2018-12-11T19:00:59.006Z,5.10
2018-12-11T19:03:32.685Z,5.20
2018-12-11T19:06:07.295Z,5.20
2018-12-11T19:08:40.514Z,5.10
2018-12-11T19:11:13.385Z,4.90
2018-12-11T19:13:47.742Z,5.00
2018-12-11T19:16:20.359Z,5.10
2018-12-11T19:18:53.195Z,5.10
2018-12-11T19:21:26.047Z,5.10
2018-12-11T19:24:08.388Z,5.00
2018-12-11T19:26:41.839Z,5.10
2018-12-11T19:29:16.016Z,4.80
2018-12-11T19:31:48.828Z,4.80
2018-12-11T19:34:21.580Z,4.90
2018-12-11T19:36:55.261Z,4.80
2018-12-11T19:39:27.934Z,4.90
2018-12-11T19:42:01.085Z,4.80
2018-12-11T19:44:34.667Z,4.80
2018-12-11T19:47:09.557Z,4.50
2018-12-11T19:49:42.677Z,4.50
2018-12-11T19:52:16.078Z,4.50
2018-12-11T19:54:49.236Z,4.50
2018-12-11T19:57:22.416Z,4.70
2018-12-11T19:59:55.917Z,4.70
2018-12-11T20:02:29.455Z,4.70
2018-12-11T20:05:03.765Z,4.60
2018-12-11T20:07:38.973Z,4.40
2018-12-11T20:10:15.720Z,4.50
2018-12-11T20:12:48.605Z,4.40
2018-12-11T20:15:22.066Z,4.30
2018-12-11T20:17:55.592Z,4.30
2018-12-11T20:20:29.597Z,4.50
2018-12-11T20:23:02.385Z,4.20
2018-12-11T20:25:36.939Z,4.20
2018-12-11T20:28:09.817Z,4.30
2018-12-11T20:30:42.264Z,4.40
2018-12-11T20:33:16.067Z,4.40
2018-12-11T20:35:48.534Z,4.40
2018-12-11T20:38:21.372Z,4.40
2018-12-11T20:40:54.506Z,4.20
2018-12-11T20:43:27.337Z,4.20
2018-12-11T20:46:00.387Z,4.30
2018-12-11T20:48:33.167Z,4.30
2018-12-11T20:51:06.892Z,4.40
2018-12-11T20:56:12.376Z,3.90
2018-12-11T20:58:45.612Z,4.00
2018-12-11T21:01:21.090Z,4.00
2018-12-11T21:03:54.236Z,4.00
2018-12-11T21:06:27.636Z,4.10
2018-12-11T21:09:00.771Z,3.90
2018-12-11T21:11:33.391Z,3.80
2018-12-11T21:14:06.097Z,3.90
2018-12-11T21:16:39.589Z,3.80
2018-12-11T21:19:13.983Z,3.70
2018-12-11T21:21:47.105Z,3.80
2018-12-11T21:24:19.991Z,3.80
2018-12-11T21:26:53.032Z,3.60
2018-12-11T21:29:27.818Z,3.70
2018-12-11T21:32:01.009Z,3.60
2018-12-11T21:34:33.869Z,3.60
2018-12-11T21:37:06.871Z,3.70
2018-12-11T21:39:40.408Z,3.70
2018-12-11T21:42:13.379Z,3.70
2018-12-11T21:44:46.928Z,3.70
2018-12-11T21:47:19.689Z,3.70
2018-12-11T21:49:52.442Z,3.60
2018-12-11T21:52:24.942Z,3.50
2018-12-11T21:54:57.405Z,3.50
2018-12-11T21:57:30.143Z,3.60
2018-12-11T22:00:04.774Z,3.70
2018-12-11T22:02:37.685Z,3.60
2018-12-11T22:05:10.590Z,3.70
2018-12-11T22:07:43.095Z,3.70
2018-12-11T22:10:17.588Z,3.70
2018-12-11T22:12:52.005Z,3.60
2018-12-11T22:15:24.644Z,3.60
2018-12-11T22:17:57.097Z,3.70
2018-12-11T22:20:30.327Z,3.70
2018-12-11T22:23:02.808Z,3.70
2018-12-11T22:25:35.337Z,3.60
2018-12-11T22:28:07.902Z,3.60
2018-12-11T22:30:40.321Z,3.50
2018-12-11T22:33:13.657Z,3.50
2018-12-11T22:35:46.601Z,3.60
2018-12-11T22:38:19.701Z,3.70
2018-12-11T22:40:52.626Z,3.70
2018-12-11T22:43:25.715Z,3.70
2018-12-11T22:45:59.400Z,3.70
2018-12-11T22:48:32.905Z,3.70
2018-12-11T22:51:06.777Z,3.50
2018-12-11T22:53:39.990Z,3.50
2018-12-11T22:56:12.905Z,3.60
2018-12-11T22:58:46.234Z,3.70
2018-12-11T23:01:19.443Z,3.60
2018-12-11T23:03:52.271Z,3.60
2018-12-11T23:06:24.980Z,3.60
2018-12-11T23:08:57.664Z,3.70
2018-12-11T23:11:30.157Z,3.60
2018-12-11T23:14:03.864Z,3.60
2018-12-11T23:16:36.838Z,3.60
2018-12-11T23:19:10.479Z,3.40
2018-12-11T23:21:43.445Z,3.30
2018-12-11T23:24:16.069Z,3.40
2018-12-11T23:26:49.029Z,3.40
2018-12-11T23:29:23.747Z,3.50
2018-12-11T23:31:56.808Z,3.50
2018-12-11T23:34:29.484Z,3.60
2018-12-11T23:37:02.645Z,3.70
2018-12-11T23:39:35.752Z,3.50
2018-12-11T23:42:09.368Z,3.50
2018-12-11T23:44:43.912Z,3.40
2018-12-11T23:47:16.492Z,3.60
2018-12-11T23:49:49.623Z,3.60
2018-12-11T23:52:24.079Z,3.70
2018-12-11T23:54:57.517Z,3.60
2018-12-11T23:57:30.409Z,3.60
